createdAt,value
2022-08-05T00:00:17.368Z,6.25
2022-08-05T00:02:50.914Z,6.85
2022-08-05T00:08:32.816Z,6.32
2022-08-05T00:11:00.837Z,4.88
2022-08-05T00:13:39.024Z,10.05
2022-08-05T00:16:12.243Z,6.68
2022-08-05T00:18:45.296Z,6.57
2022-08-05T00:21:14.719Z,7.32
2022-08-05T00:23:45.901Z,6.63
2022-08-05T00:26:16.658Z,6.72
2022-08-05T00:28:45.855Z,13.10
2022-08-05T00:31:14.837Z,6.05
2022-08-05T00:34:53.259Z,5.78
2022-08-05T00:37:08.935Z,8.07
2022-08-05T00:39:21.345Z,7.95
2022-08-05T00:41:55.593Z,5.70
2022-08-05T00:44:30.682Z,6.25
2022-08-05T00:47:02.171Z,6.30
2022-08-05T00:49:51.280Z,4.93
2022-08-05T00:52:28.098Z,5.75
2022-08-05T00:54:57.031Z,5.45
2022-08-05T00:57:38.139Z,4.85
2022-08-05T01:00:17.042Z,6.75
2022-08-05T01:02:48.002Z,6.65
2022-08-05T01:05:19.684Z,6.93
2022-08-05T01:08:30.266Z,8.00
2022-08-05T01:10:40.964Z,5.55
2022-08-05T01:13:59.062Z,9.90
2022-08-05T01:16:26.464Z,21.83
2022-08-05T01:19:00.858Z,12.38
2022-08-05T01:21:58.362Z,12.32
2022-08-05T01:24:42.757Z,7.85
2022-08-05T01:27:27.466Z,8.23
2022-08-05T01:30:04.994Z,9.18
2022-08-05T01:32:45.425Z,6.53
2022-08-05T01:35:51.620Z,8.45
2022-08-05T01:38:08.029Z,8.50
2022-08-05T01:40:54.624Z,7.60
2022-08-05T01:43:25.445Z,5.28
2022-08-05T01:45:57.137Z,5.80
2022-08-05T01:48:27.138Z,6.45
2022-08-05T01:50:57.752Z,6.03
2022-08-05T01:53:57.700Z,19.45
2022-08-05T01:58:11.440Z,10.77
2022-08-05T01:59:11.204Z,6.47
2022-08-05T02:01:41.543Z,6.60
2022-08-05T02:04:10.691Z,7.30
2022-08-05T02:06:39.673Z,6.63
2022-08-05T02:09:08.743Z,5.35
2022-08-05T02:11:48.160Z,8.38
2022-08-05T02:14:26.817Z,5.35
2022-08-05T02:17:03.162Z,8.88
2022-08-05T02:19:35.501Z,7.68
2022-08-05T02:22:10.081Z,8.10
2022-08-05T02:25:00.089Z,5.28
2022-08-05T02:27:29.741Z,7.28
2022-08-05T02:30:18.728Z,6.82
2022-08-05T02:32:52.294Z,7.45
2022-08-05T02:35:28.198Z,5.93
2022-08-05T02:38:02.175Z,8.32
2022-08-05T02:40:32.598Z,34.70
2022-08-05T02:43:03.406Z,18.40
2022-08-05T02:45:52.471Z,8.60
2022-08-05T02:48:29.022Z,8.05
2022-08-05T02:51:01.036Z,6.45
2022-08-05T02:53:35.899Z,6.20
2022-08-05T02:56:16.065Z,8.70
2022-08-05T02:58:51.197Z,9.13
2022-08-05T03:01:40.390Z,8.27
2022-08-05T03:06:55.813Z,6.93
2022-08-05T03:09:37.733Z,7.90
2022-08-05T03:12:08.283Z,5.88
2022-08-05T03:14:46.001Z,10.38
2022-08-05T03:17:14.765Z,12.07
2022-08-05T03:19:45.645Z,8.50
2022-08-05T03:22:16.300Z,10.57
2022-08-05T03:24:51.114Z,10.55
2022-08-05T03:27:22.002Z,9.38
2022-08-05T03:30:07.569Z,7.40
2022-08-05T03:32:37.643Z,9.07
2022-08-05T03:35:08.948Z,7.97
2022-08-05T03:37:41.015Z,10.38
2022-08-05T03:40:24.434Z,10.25
2022-08-05T03:43:15.697Z,6.80
2022-08-05T03:45:57.861Z,10.05
2022-08-05T03:48:28.971Z,12.15
2022-08-05T03:52:37.323Z,12.57
2022-08-05T03:55:52.848Z,8.27
2022-08-05T03:56:50.107Z,12.02
2022-08-05T03:59:24.772Z,6.97
2022-08-05T04:01:54.549Z,9.35
2022-08-05T04:06:59.021Z,9.95
2022-08-05T04:09:28.961Z,10.77
2022-08-05T04:11:57.634Z,13.75
2022-08-05T04:14:30.296Z,8.30
2022-08-05T04:17:03.077Z,9.75
2022-08-05T04:19:31.570Z,9.75
2022-08-05T04:22:09.221Z,27.45
2022-08-05T04:24:44.350Z,54.58
2022-08-05T04:27:15.339Z,37.00
2022-08-05T04:29:43.789Z,23.60
2022-08-05T04:32:12.154Z,14.07
2022-08-05T04:34:42.855Z,10.40
2022-08-05T04:37:12.937Z,9.02
2022-08-05T04:39:41.141Z,6.63
2022-08-05T04:42:10.342Z,10.35
2022-08-05T04:44:39.187Z,10.90
2022-08-05T04:47:09.889Z,9.27
2022-08-05T04:50:02.917Z,9.38
2022-08-05T04:52:33.283Z,7.80
2022-08-05T04:55:14.918Z,8.27
2022-08-05T04:57:47.583Z,6.60
2022-08-05T05:00:17.223Z,8.02
2022-08-05T05:02:45.311Z,6.47
2022-08-05T05:05:25.995Z,9.38
2022-08-05T05:08:01.728Z,7.70
2022-08-05T05:10:33.524Z,5.68
2022-08-05T05:13:04.273Z,8.50
2022-08-05T05:15:57.927Z,12.80
2022-08-05T05:18:31.242Z,13.27
2022-08-05T05:21:02.336Z,12.63
2022-08-05T05:24:02.189Z,12.18
2022-08-05T05:26:28.628Z,17.33
2022-08-05T05:29:02.353Z,14.90
2022-08-05T05:34:02.053Z,7.63
2022-08-05T05:36:31.944Z,6.32
2022-08-05T05:39:03.761Z,5.32
2022-08-05T05:41:40.931Z,10.82
2022-08-05T05:44:35.995Z,6.10
2022-08-05T05:47:04.190Z,8.00
2022-08-05T05:52:09.026Z,7.10
2022-08-05T05:54:50.219Z,6.47
2022-08-05T05:57:19.954Z,7.75
2022-08-05T05:59:48.866Z,9.13
2022-08-05T06:02:32.575Z,8.38
2022-08-05T06:05:13.945Z,7.75
2022-08-05T06:07:57.901Z,7.13
2022-08-05T06:10:36.277Z,8.35
2022-08-05T06:13:05.282Z,9.07
2022-08-05T06:16:28.359Z,5.30
2022-08-05T06:18:31.543Z,6.15
2022-08-05T06:21:00.612Z,11.38
2022-08-05T06:23:43.525Z,7.65
2022-08-05T06:26:20.957Z,11.93
2022-08-05T06:28:50.597Z,7.13
2022-08-05T06:31:22.020Z,6.68
2022-08-05T06:34:07.752Z,5.25
2022-08-05T06:36:56.937Z,7.95
2022-08-05T06:39:27.048Z,8.88
2022-08-05T06:41:57.510Z,8.10
2022-08-05T06:44:28.034Z,9.48
2022-08-05T06:46:56.250Z,9.43
2022-08-05T06:50:00.138Z,7.00
2022-08-05T06:52:37.926Z,7.10
2022-08-05T06:55:02.519Z,7.40
2022-08-05T06:58:02.610Z,7.20
2022-08-05T07:00:24.517Z,4.93
2022-08-05T07:02:54.430Z,5.80
2022-08-05T07:05:37.231Z,7.93
2022-08-05T07:08:10.683Z,7.22
2022-08-05T07:10:53.023Z,7.38
2022-08-05T07:13:57.550Z,8.93
2022-08-05T07:17:58.678Z,6.28
2022-08-05T07:22:28.115Z,9.40
2022-08-05T07:25:22.921Z,7.03
2022-08-05T07:27:58.558Z,6.65
2022-08-05T07:30:34.304Z,6.85
2022-08-05T07:33:05.486Z,6.85
2022-08-05T07:36:04.000Z,5.95
2022-08-05T07:38:33.641Z,9.40
2022-08-05T07:41:35.124Z,7.30
2022-08-05T07:43:56.163Z,8.30
2022-08-05T07:46:27.590Z,7.20
2022-08-05T07:49:02.408Z,5.10
2022-08-05T07:51:37.420Z,8.38
2022-08-05T07:54:10.502Z,4.32
2022-08-05T07:57:01.385Z,6.28
2022-08-05T07:59:31.365Z,7.53
2022-08-05T08:02:16.632Z,5.68
2022-08-05T08:04:46.543Z,8.55
2022-08-05T08:07:17.888Z,7.55
2022-08-05T08:09:52.915Z,6.47
2022-08-05T08:12:36.849Z,6.07
2022-08-05T08:15:15.107Z,5.78
2022-08-05T08:17:52.653Z,7.68
2022-08-05T08:21:00.069Z,5.45
2022-08-05T08:24:00.367Z,5.00
2022-08-05T08:26:00.654Z,7.00
2022-08-05T08:28:37.166Z,5.18
2022-08-05T08:31:14.970Z,7.60
2022-08-05T08:33:51.604Z,4.95
2022-08-05T08:36:39.009Z,9.43
2022-08-05T08:39:14.951Z,5.82
2022-08-05T08:41:52.563Z,8.05
2022-08-05T08:48:05.676Z,7.13
2022-08-05T08:50:30.673Z,7.90
2022-08-05T08:53:08.058Z,6.63
2022-08-05T08:56:02.774Z,8.93
2022-08-05T08:58:43.097Z,7.38
2022-08-05T09:01:15.776Z,8.00
2022-08-05T09:03:47.603Z,7.35
2022-08-05T09:06:21.265Z,7.20
2022-08-05T09:08:52.514Z,8.15
2022-08-05T09:11:51.415Z,7.57
2022-08-05T09:14:56.617Z,4.05
2022-08-05T09:16:57.887Z,7.25
2022-08-05T09:19:27.832Z,6.95
2022-08-05T09:22:21.890Z,8.40
2022-08-05T09:24:59.139Z,7.05
2022-08-05T09:28:04.212Z,5.60
2022-08-05T09:30:23.248Z,7.43
2022-08-05T09:32:52.767Z,6.38
2022-08-05T09:35:27.385Z,5.63
2022-08-05T09:38:17.572Z,5.63
2022-08-05T09:40:52.374Z,6.75
2022-08-05T09:43:41.138Z,5.38
2022-08-05T09:46:28.405Z,7.03
2022-08-05T09:49:08.214Z,7.25
2022-08-05T09:51:49.525Z,6.80
2022-08-05T09:54:32.078Z,5.05
2022-08-05T09:57:01.674Z,4.88
2022-08-05T09:59:35.055Z,4.78
2022-08-05T10:02:06.299Z,5.30
2022-08-05T10:04:41.379Z,5.05
2022-08-05T10:07:19.925Z,2.65
2022-08-05T10:10:13.926Z,3.92
2022-08-05T10:12:49.652Z,4.47
2022-08-05T10:15:27.146Z,5.05
2022-08-05T10:18:22.383Z,9.75
2022-08-05T10:20:54.056Z,13.50
2022-08-05T10:23:55.550Z,7.82
2022-08-05T10:26:14.868Z,10.85
2022-08-05T10:28:45.111Z,8.15
2022-08-05T10:32:53.120Z,5.90
2022-08-05T10:34:07.850Z,4.55
2022-08-05T10:36:37.350Z,4.28
2022-08-05T10:39:15.026Z,6.95
2022-08-05T10:42:01.510Z,7.00
2022-08-05T10:44:32.345Z,7.38
2022-08-05T10:47:26.061Z,6.82
2022-08-05T10:50:20.736Z,3.95
2022-08-05T10:52:58.714Z,10.65
2022-08-05T10:55:28.034Z,8.27
2022-08-05T10:58:17.891Z,7.68
2022-08-05T11:00:47.918Z,8.95
2022-08-05T11:03:24.750Z,4.47
2022-08-05T11:06:08.391Z,8.13
2022-08-05T11:09:16.695Z,4.55
2022-08-05T11:11:52.602Z,6.45
2022-08-05T11:15:11.937Z,4.45
2022-08-05T11:18:07.293Z,6.70
2022-08-05T11:20:43.645Z,5.43
2022-08-05T11:24:04.923Z,6.10
2022-08-05T11:26:28.886Z,7.38
2022-08-05T11:31:58.616Z,3.40
2022-08-05T11:34:39.939Z,5.78
2022-08-05T11:38:30.623Z,4.25
2022-08-05T11:41:03.550Z,3.65
2022-08-05T11:44:05.962Z,5.28
2022-08-05T11:46:58.754Z,3.22
2022-08-05T11:49:28.883Z,3.33
2022-08-05T11:52:11.399Z,1.98
2022-08-05T11:54:41.763Z,5.85
2022-08-05T11:57:25.488Z,2.13
2022-08-05T11:59:54.645Z,3.65
2022-08-05T12:02:36.061Z,2.90
2022-08-05T12:05:18.037Z,3.47
2022-08-05T12:08:09.137Z,4.38
2022-08-05T12:10:45.800Z,2.92
2022-08-05T12:13:27.636Z,2.45
2022-08-05T12:16:15.049Z,2.95
2022-08-05T12:18:52.220Z,1.42
2022-08-05T12:21:26.682Z,2.03
2022-08-05T12:24:04.591Z,1.75
2022-08-05T12:26:35.377Z,2.83
2022-08-05T12:29:05.633Z,3.10
2022-08-05T12:31:42.366Z,4.38
2022-08-05T12:34:21.454Z,2.55
2022-08-05T12:36:55.527Z,3.17
2022-08-05T12:39:27.931Z,2.05
2022-08-05T12:42:04.254Z,2.90
2022-08-05T12:44:36.880Z,1.08
2022-08-05T12:47:12.520Z,1.23
2022-08-05T12:50:04.098Z,2.45
2022-08-05T12:52:38.673Z,1.33
2022-08-05T12:55:22.127Z,2.72
2022-08-05T12:58:50.460Z,3.50
2022-08-05T13:02:01.885Z,5.22
2022-08-05T13:03:39.029Z,3.63
2022-08-05T13:06:16.470Z,2.42
2022-08-05T13:08:52.333Z,2.13
2022-08-05T13:11:59.801Z,3.05
2022-08-05T13:14:24.680Z,3.58
2022-08-05T13:17:08.237Z,2.13
2022-08-05T13:19:51.091Z,2.70
2022-08-05T13:22:29.475Z,4.72
2022-08-05T13:25:05.540Z,2.40
2022-08-05T13:27:39.187Z,2.65
2022-08-05T13:30:35.105Z,2.65
2022-08-05T13:33:00.930Z,2.25
2022-08-05T13:35:42.704Z,2.83
2022-08-05T13:38:28.260Z,3.13
2022-08-05T13:41:04.125Z,3.28
2022-08-05T13:43:44.021Z,2.95
2022-08-05T13:46:43.750Z,3.50
2022-08-05T13:49:10.230Z,2.28
2022-08-05T13:51:46.590Z,2.13
2022-08-05T13:54:17.009Z,2.45
2022-08-05T13:56:50.819Z,2.58
2022-08-05T13:59:24.552Z,4.65
2022-08-05T14:01:58.146Z,2.60
2022-08-05T14:04:49.586Z,2.22
2022-08-05T14:07:56.240Z,3.88
2022-08-05T14:10:10.667Z,3.83
2022-08-05T14:12:42.980Z,4.78
2022-08-05T14:16:08.155Z,4.38
2022-08-05T14:18:06.266Z,2.88
2022-08-05T14:20:47.229Z,4.05
2022-08-05T14:23:24.792Z,4.72
2022-08-05T14:25:58.979Z,4.63
2022-08-05T14:28:29.332Z,2.83
2022-08-05T14:30:57.729Z,1.92
2022-08-05T14:33:25.876Z,2.40
2022-08-05T14:35:54.853Z,3.55
2022-08-05T14:38:31.906Z,2.78
2022-08-05T14:41:06.114Z,2.55
2022-08-05T14:43:59.993Z,3.42
2022-08-05T14:46:28.732Z,2.55
2022-08-05T14:49:03.383Z,1.08
2022-08-05T14:51:37.589Z,4.53
2022-08-05T14:54:27.638Z,1.33
2022-08-05T14:56:55.008Z,2.05
2022-08-05T14:59:24.768Z,3.00
2022-08-05T15:01:53.739Z,1.63
2022-08-05T15:04:22.836Z,4.45
2022-08-05T15:06:51.997Z,2.30
2022-08-05T15:09:51.099Z,2.60
2022-08-05T15:12:11.567Z,1.23
2022-08-05T15:14:48.231Z,1.10
2022-08-05T15:17:45.738Z,4.60
2022-08-05T15:20:18.618Z,1.38
2022-08-05T15:22:54.410Z,0.88
2022-08-05T15:25:40.833Z,1.10
2022-08-05T15:28:13.149Z,2.42
2022-08-05T15:30:45.496Z,6.72
2022-08-05T15:34:05.628Z,5.35
2022-08-05T15:36:03.910Z,3.08
2022-08-05T15:38:36.440Z,4.20
2022-08-05T15:41:22.985Z,2.45
2022-08-05T15:43:54.654Z,7.38
2022-08-05T15:46:25.210Z,2.90
2022-08-05T15:49:01.035Z,3.63
2022-08-05T15:54:34.737Z,3.70
2022-08-05T15:57:07.617Z,5.30
2022-08-05T15:59:36.297Z,5.75
2022-08-05T16:02:09.612Z,6.47
2022-08-05T16:04:43.423Z,5.32
2022-08-05T16:07:12.206Z,6.07
2022-08-05T16:09:42.201Z,6.80
2022-08-05T16:12:31.749Z,4.75
2022-08-05T16:15:00.458Z,3.70
2022-08-05T16:17:30.165Z,3.05
2022-08-05T16:20:04.269Z,2.55
2022-08-05T16:22:40.768Z,2.15
2022-08-05T16:25:10.383Z,6.45
2022-08-05T16:28:01.039Z,3.00
2022-08-05T16:30:29.211Z,4.93
2022-08-05T16:32:59.424Z,3.88
2022-08-05T16:35:32.400Z,3.92
2022-08-05T16:38:18.560Z,3.95
2022-08-05T16:40:59.783Z,4.25
2022-08-05T16:43:32.080Z,2.95
2022-08-05T16:46:24.265Z,5.72
2022-08-05T16:48:55.568Z,3.67
2022-08-05T16:51:24.241Z,1.30
2022-08-05T16:54:04.855Z,3.00
2022-08-05T16:56:41.613Z,2.47
2022-08-05T16:59:14.555Z,1.65
2022-08-05T17:01:54.109Z,3.10
2022-08-05T17:04:27.229Z,1.65
2022-08-05T17:07:00.211Z,2.45
2022-08-05T17:09:29.881Z,0.63
2022-08-05T17:11:59.813Z,2.40
2022-08-05T17:14:37.177Z,2.88
2022-08-05T17:17:14.270Z,0.63
2022-08-05T17:19:46.382Z,0.82
2022-08-05T17:22:25.522Z,0.80
2022-08-05T17:24:57.822Z,0.93
2022-08-05T17:27:34.211Z,0.65
2022-08-05T17:30:12.128Z,1.05
2022-08-05T17:35:20.777Z,2.58
2022-08-05T17:37:49.265Z,0.88
2022-08-05T17:40:22.657Z,1.65
2022-08-05T17:42:53.210Z,1.13
2022-08-05T17:45:23.022Z,3.55
2022-08-05T17:47:56.094Z,1.67
2022-08-05T17:50:28.178Z,0.95
2022-08-05T17:53:04.548Z,3.13
2022-08-05T17:55:39.572Z,1.27
2022-08-05T17:58:12.582Z,0.57
2022-08-05T18:00:45.145Z,2.38
2022-08-05T18:06:11.899Z,3.10
2022-08-05T18:08:44.836Z,1.30
2022-08-05T18:11:23.174Z,2.03
2022-08-05T18:13:51.649Z,1.10
2022-08-05T18:16:20.750Z,1.35
2022-08-05T18:18:50.862Z,0.65
2022-08-05T18:21:22.946Z,1.42
2022-08-05T18:23:55.721Z,3.58
2022-08-05T18:26:27.709Z,1.52
2022-08-05T18:31:33.807Z,2.45
2022-08-05T18:34:05.949Z,2.75
2022-08-05T18:36:36.527Z,1.02
2022-08-05T18:39:09.693Z,4.18
2022-08-05T18:41:55.276Z,5.03
2022-08-05T18:44:34.822Z,2.38
2022-08-05T18:47:04.346Z,3.28
2022-08-05T18:49:57.859Z,2.35
2022-08-05T18:52:35.748Z,3.33
2022-08-05T18:55:10.315Z,7.68
2022-08-05T18:57:43.650Z,1.63
2022-08-05T19:00:27.090Z,0.63
2022-08-05T19:03:03.976Z,2.53
2022-08-05T19:06:11.162Z,0.73
2022-08-05T19:08:30.543Z,1.05
2022-08-05T19:11:04.472Z,1.38
2022-08-05T19:13:35.671Z,3.03
2022-08-05T19:16:05.693Z,11.00
2022-08-05T19:18:53.994Z,7.55
2022-08-05T19:21:25.942Z,4.22
2022-08-05T19:24:06.253Z,1.50
2022-08-05T19:26:43.961Z,1.65
2022-08-05T19:29:23.992Z,2.83
2022-08-05T19:31:55.934Z,0.68
2022-08-05T19:34:25.671Z,1.83
2022-08-05T19:36:53.838Z,2.45
2022-08-05T19:39:23.399Z,2.40
2022-08-05T19:42:06.977Z,0.80
2022-08-05T19:44:45.342Z,1.13
2022-08-05T19:47:15.292Z,2.53
2022-08-05T19:49:45.243Z,1.55
2022-08-05T19:52:31.702Z,1.50
2022-08-05T19:55:06.997Z,0.95
2022-08-05T19:58:14.489Z,1.92
2022-08-05T20:00:38.317Z,3.47
2022-08-05T20:03:09.120Z,1.63
2022-08-05T20:05:43.051Z,2.35
2022-08-05T20:08:11.691Z,3.17
2022-08-05T20:10:43.317Z,5.57
2022-08-05T20:13:12.175Z,1.58
2022-08-05T20:15:52.465Z,6.22
2022-08-05T20:18:33.902Z,3.92
2022-08-05T20:21:05.276Z,4.10
2022-08-05T20:23:40.551Z,3.55
2022-08-05T20:26:21.520Z,2.72
2022-08-05T20:28:54.028Z,5.70
2022-08-05T20:31:36.846Z,8.95
2022-08-05T20:34:11.667Z,2.55
2022-08-05T20:36:43.483Z,4.10
2022-08-05T20:39:13.343Z,1.70
2022-08-05T20:41:45.471Z,2.70
2022-08-05T20:44:18.674Z,16.02
2022-08-05T20:46:47.932Z,7.35
2022-08-05T20:49:23.921Z,1.75
2022-08-05T20:51:53.763Z,1.90
2022-08-05T20:54:22.287Z,1.23
2022-08-05T20:56:51.779Z,1.48
2022-08-05T20:59:26.471Z,3.50
2022-08-05T21:01:57.984Z,3.60
2022-08-05T21:04:27.302Z,2.83
2022-08-05T21:06:55.925Z,2.50
2022-08-05T21:09:24.016Z,2.95
2022-08-05T21:12:10.905Z,1.05
2022-08-05T21:14:40.040Z,3.97
2022-08-05T21:17:08.125Z,3.50
2022-08-05T21:19:46.480Z,3.67
2022-08-05T21:22:18.406Z,2.28
2022-08-05T21:24:48.970Z,3.08
2022-08-05T21:27:25.475Z,2.08
2022-08-05T21:29:56.202Z,3.70
2022-08-05T21:32:27.037Z,4.82
2022-08-05T21:35:17.332Z,3.33
2022-08-05T21:37:47.251Z,3.55
2022-08-05T21:40:16.629Z,1.50
2022-08-05T21:42:47.210Z,2.30
2022-08-05T21:45:24.633Z,3.10
2022-08-05T21:48:06.492Z,1.55
2022-08-05T21:50:36.654Z,2.88
2022-08-05T21:53:16.268Z,1.50
2022-08-05T21:56:06.069Z,2.53
2022-08-05T21:58:34.408Z,2.85
2022-08-05T22:01:05.600Z,4.35
2022-08-05T22:03:52.307Z,2.45
2022-08-05T22:06:34.821Z,2.70
2022-08-05T22:09:13.997Z,4.65
2022-08-05T22:11:47.008Z,5.43
2022-08-05T22:14:33.325Z,9.13
2022-08-05T22:17:06.981Z,5.88
2022-08-05T22:19:57.265Z,6.60
2022-08-05T22:22:28.280Z,3.35
2022-08-05T22:25:21.586Z,4.60
2022-08-05T22:28:09.385Z,3.70
2022-08-05T22:30:44.302Z,4.82
2022-08-05T22:33:57.282Z,5.38
2022-08-05T22:36:17.145Z,6.43
2022-08-05T22:38:48.118Z,3.92
2022-08-05T22:41:26.262Z,5.05
2022-08-05T22:44:05.531Z,2.78
2022-08-05T22:46:40.168Z,2.03
2022-08-05T22:49:12.486Z,3.85
2022-08-05T22:52:05.692Z,2.47
2022-08-05T22:54:36.577Z,1.30
2022-08-05T22:57:05.126Z,2.70
2022-08-05T22:59:48.448Z,3.17
2022-08-05T23:02:29.677Z,3.38
2022-08-05T23:05:02.144Z,2.95
2022-08-05T23:07:33.693Z,2.80
2022-08-05T23:10:14.575Z,4.97
2022-08-05T23:12:43.915Z,5.80
2022-08-05T23:15:12.563Z,1.10
2022-08-05T23:18:00.848Z,3.33
2022-08-05T23:20:30.260Z,2.03
2022-08-05T23:22:58.926Z,5.43
2022-08-05T23:25:50.869Z,2.05
2022-08-05T23:28:17.222Z,1.23
2022-08-05T23:30:53.117Z,1.98
2022-08-05T23:34:03.252Z,1.98
2022-08-05T23:36:13.508Z,2.35
2022-08-05T23:38:42.785Z,1.23
2022-08-05T23:41:12.077Z,1.67
2022-08-05T23:44:05.431Z,4.82
2022-08-05T23:46:29.832Z,3.53
2022-08-05T23:49:02.171Z,2.88
2022-08-05T23:52:02.351Z,2.47
2022-08-05T23:54:36.463Z,1.70
2022-08-05T23:57:08.266Z,3.03
